sensor_id;sensor_type;location;lat;lon;timestamp;P1;durP1;ratioP1;P2;durP2;ratioP2
19436;SDS011;9854;50.968;4.168;2022-08-23T00:01:18;24.75;;;11.40;;
19436;SDS011;9854;50.968;4.168;2022-08-23T00:03:46;21.15;;;10.32;;
19436;SDS011;9854;50.968;4.168;2022-08-23T00:06:13;24.13;;;11.25;;
19436;SDS011;9854;50.968;4.168;2022-08-23T00:08:39;17.50;;;9.50;;
19436;SDS011;9854;50.968;4.168;2022-08-23T00:11:05;20.77;;;9.18;;
19436;SDS011;9854;50.968;4.168;2022-08-23T00:13:48;21.40;;;8.48;;
19436;SDS011;9854;50.968;4.168;2022-08-23T00:16:13;21.02;;;9.00;;
19436;SDS011;9854;50.968;4.168;2022-08-23T00:18:39;27.92;;;10.35;;
19436;SDS011;9854;50.968;4.168;2022-08-23T00:21:05;18.23;;;9.50;;
19436;SDS011;9854;50.968;4.168;2022-08-23T00:23:31;22.98;;;9.77;;
19436;SDS011;9854;50.968;4.168;2022-08-23T00:25:59;16.45;;;8.05;;
19436;SDS011;9854;50.968;4.168;2022-08-23T00:28:26;23.85;;;9.38;;
19436;SDS011;9854;50.968;4.168;2022-08-23T00:30:52;19.65;;;10.32;;
19436;SDS011;9854;50.968;4.168;2022-08-23T00:33:18;18.35;;;8.98;;
19436;SDS011;9854;50.968;4.168;2022-08-23T00:35:43;20.65;;;8.55;;
19436;SDS011;9854;50.968;4.168;2022-08-23T00:38:09;16.42;;;7.95;;
19436;SDS011;9854;50.968;4.168;2022-08-23T00:40:35;17.55;;;8.23;;
19436;SDS011;9854;50.968;4.168;2022-08-23T00:43:05;19.00;;;8.20;;
19436;SDS011;9854;50.968;4.168;2022-08-23T00:48:48;14.52;;;8.05;;
19436;SDS011;9854;50.968;4.168;2022-08-23T00:51:22;14.02;;;7.90;;
19436;SDS011;9854;50.968;4.168;2022-08-23T00:53:58;21.48;;;8.85;;
19436;SDS011;9854;50.968;4.168;2022-08-23T00:56:28;20.85;;;8.60;;
19436;SDS011;9854;50.968;4.168;2022-08-23T00:58:57;17.35;;;8.15;;
19436;SDS011;9854;50.968;4.168;2022-08-23T01:01:24;17.42;;;8.52;;
19436;SDS011;9854;50.968;4.168;2022-08-23T01:03:52;22.42;;;8.20;;
19436;SDS011;9854;50.968;4.168;2022-08-23T01:06:28;24.10;;;8.60;;
19436;SDS011;9854;50.968;4.168;2022-08-23T01:09:17;17.08;;;7.80;;
19436;SDS011;9854;50.968;4.168;2022-08-23T01:12:06;17.42;;;8.45;;
19436;SDS011;9854;50.968;4.168;2022-08-23T01:14:41;16.38;;;7.72;;
19436;SDS011;9854;50.968;4.168;2022-08-23T01:17:20;20.20;;;7.90;;
19436;SDS011;9854;50.968;4.168;2022-08-23T01:20:04;20.17;;;7.85;;
19436;SDS011;9854;50.968;4.168;2022-08-23T01:22:36;18.05;;;7.45;;
19436;SDS011;9854;50.968;4.168;2022-08-23T01:25:21;10.90;;;7.82;;
19436;SDS011;9854;50.968;4.168;2022-08-23T01:27:48;18.98;;;7.65;;
19436;SDS011;9854;50.968;4.168;2022-08-23T01:30:17;19.23;;;7.40;;
19436;SDS011;9854;50.968;4.168;2022-08-23T01:32:50;17.27;;;8.15;;
19436;SDS011;9854;50.968;4.168;2022-08-23T01:35:19;24.42;;;8.07;;
19436;SDS011;9854;50.968;4.168;2022-08-23T01:37:48;14.45;;;7.43;;
19436;SDS011;9854;50.968;4.168;2022-08-23T01:40:13;18.80;;;7.43;;
19436;SDS011;9854;50.968;4.168;2022-08-23T01:42:40;11.98;;;7.10;;
19436;SDS011;9854;50.968;4.168;2022-08-23T01:45:07;11.02;;;6.53;;
19436;SDS011;9854;50.968;4.168;2022-08-23T01:47:37;20.77;;;7.38;;
19436;SDS011;9854;50.968;4.168;2022-08-23T01:50:04;16.02;;;6.57;;
19436;SDS011;9854;50.968;4.168;2022-08-23T01:52:31;21.95;;;6.85;;
19436;SDS011;9854;50.968;4.168;2022-08-23T01:54:58;12.15;;;6.10;;
19436;SDS011;9854;50.968;4.168;2022-08-23T01:57:25;20.60;;;6.95;;
19436;SDS011;9854;50.968;4.168;2022-08-23T01:59:52;10.27;;;6.13;;
19436;SDS011;9854;50.968;4.168;2022-08-23T02:02:19;11.95;;;7.25;;
19436;SDS011;9854;50.968;4.168;2022-08-23T02:04:45;18.08;;;8.25;;
19436;SDS011;9854;50.968;4.168;2022-08-23T02:07:11;20.27;;;8.95;;
19436;SDS011;9854;50.968;4.168;2022-08-23T02:09:36;12.93;;;7.60;;
19436;SDS011;9854;50.968;4.168;2022-08-23T02:12:02;18.35;;;8.40;;
19436;SDS011;9854;50.968;4.168;2022-08-23T02:14:29;19.25;;;8.98;;
19436;SDS011;9854;50.968;4.168;2022-08-23T02:16:55;20.13;;;8.95;;
19436;SDS011;9854;50.968;4.168;2022-08-23T02:19:22;17.33;;;7.80;;
19436;SDS011;9854;50.968;4.168;2022-08-23T02:21:48;16.33;;;7.43;;
19436;SDS011;9854;50.968;4.168;2022-08-23T02:24:15;21.33;;;7.68;;
19436;SDS011;9854;50.968;4.168;2022-08-23T02:26:45;14.75;;;7.13;;
19436;SDS011;9854;50.968;4.168;2022-08-23T02:29:13;11.18;;;7.80;;
19436;SDS011;9854;50.968;4.168;2022-08-23T02:31:41;11.93;;;6.88;;
19436;SDS011;9854;50.968;4.168;2022-08-23T02:34:08;14.32;;;7.45;;
19436;SDS011;9854;50.968;4.168;2022-08-23T02:36:35;24.02;;;8.07;;
19436;SDS011;9854;50.968;4.168;2022-08-23T02:39:02;16.10;;;8.32;;
19436;SDS011;9854;50.968;4.168;2022-08-23T02:41:29;16.50;;;7.10;;
19436;SDS011;9854;50.968;4.168;2022-08-23T02:43:55;15.52;;;8.00;;
19436;SDS011;9854;50.968;4.168;2022-08-23T02:46:22;13.50;;;6.95;;
19436;SDS011;9854;50.968;4.168;2022-08-23T02:48:48;13.65;;;7.82;;
19436;SDS011;9854;50.968;4.168;2022-08-23T02:51:14;18.60;;;8.23;;
19436;SDS011;9854;50.968;4.168;2022-08-23T02:53:41;15.07;;;7.80;;
19436;SDS011;9854;50.968;4.168;2022-08-23T02:56:07;14.70;;;7.88;;
19436;SDS011;9854;50.968;4.168;2022-08-23T02:58:33;18.08;;;7.85;;
19436;SDS011;9854;50.968;4.168;2022-08-23T03:00:59;21.58;;;8.90;;
19436;SDS011;9854;50.968;4.168;2022-08-23T03:03:25;18.08;;;9.05;;
19436;SDS011;9854;50.968;4.168;2022-08-23T03:05:51;23.25;;;9.85;;
19436;SDS011;9854;50.968;4.168;2022-08-23T03:08:18;19.80;;;9.93;;
19436;SDS011;9854;50.968;4.168;2022-08-23T03:10:44;16.02;;;9.25;;
19436;SDS011;9854;50.968;4.168;2022-08-23T03:13:12;27.00;;;10.65;;
19436;SDS011;9854;50.968;4.168;2022-08-23T03:15:38;22.85;;;11.00;;
19436;SDS011;9854;50.968;4.168;2022-08-23T03:18:04;21.42;;;10.30;;
19436;SDS011;9854;50.968;4.168;2022-08-23T03:20:32;18.50;;;10.00;;
19436;SDS011;9854;50.968;4.168;2022-08-23T03:22:58;19.13;;;10.20;;
19436;SDS011;9854;50.968;4.168;2022-08-23T03:25:24;14.63;;;9.85;;
19436;SDS011;9854;50.968;4.168;2022-08-23T03:27:50;21.70;;;11.18;;
19436;SDS011;9854;50.968;4.168;2022-08-23T03:30:16;27.52;;;11.13;;
19436;SDS011;9854;50.968;4.168;2022-08-23T03:32:41;17.80;;;10.52;;
19436;SDS011;9854;50.968;4.168;2022-08-23T03:35:07;18.40;;;10.82;;
19436;SDS011;9854;50.968;4.168;2022-08-23T03:37:33;19.45;;;11.40;;
19436;SDS011;9854;50.968;4.168;2022-08-23T03:39:59;25.30;;;11.63;;
19436;SDS011;9854;50.968;4.168;2022-08-23T03:42:25;24.63;;;12.07;;
19436;SDS011;9854;50.968;4.168;2022-08-23T03:44:50;22.30;;;12.25;;
19436;SDS011;9854;50.968;4.168;2022-08-23T03:47:16;21.20;;;12.23;;
19436;SDS011;9854;50.968;4.168;2022-08-23T03:49:42;20.35;;;12.10;;
19436;SDS011;9854;50.968;4.168;2022-08-23T03:52:07;17.70;;;10.50;;
19436;SDS011;9854;50.968;4.168;2022-08-23T03:54:35;15.93;;;10.25;;
19436;SDS011;9854;50.968;4.168;2022-08-23T03:57:03;15.73;;;10.35;;
19436;SDS011;9854;50.968;4.168;2022-08-23T03:59:31;20.30;;;11.23;;
19436;SDS011;9854;50.968;4.168;2022-08-23T04:01:58;20.42;;;11.20;;
19436;SDS011;9854;50.968;4.168;2022-08-23T04:04:24;21.20;;;10.73;;
19436;SDS011;9854;50.968;4.168;2022-08-23T04:06:50;24.90;;;13.85;;
19436;SDS011;9854;50.968;4.168;2022-08-23T04:09:15;22.55;;;11.32;;
19436;SDS011;9854;50.968;4.168;2022-08-23T04:11:42;14.30;;;11.43;;
19436;SDS011;9854;50.968;4.168;2022-08-23T04:14:08;23.60;;;11.80;;
19436;SDS011;9854;50.968;4.168;2022-08-23T04:16:36;29.13;;;12.02;;
19436;SDS011;9854;50.968;4.168;2022-08-23T04:19:03;22.88;;;11.57;;
19436;SDS011;9854;50.968;4.168;2022-08-23T04:21:30;23.20;;;12.18;;
19436;SDS011;9854;50.968;4.168;2022-08-23T04:23:57;23.60;;;12.43;;
19436;SDS011;9854;50.968;4.168;2022-08-23T04:26:22;24.13;;;12.73;;
19436;SDS011;9854;50.968;4.168;2022-08-23T04:28:48;21.08;;;12.32;;
19436;SDS011;9854;50.968;4.168;2022-08-23T04:31:13;24.27;;;11.25;;
19436;SDS011;9854;50.968;4.168;2022-08-23T04:33:41;16.60;;;10.90;;
19436;SDS011;9854;50.968;4.168;2022-08-23T04:36:07;13.63;;;11.15;;
19436;SDS011;9854;50.968;4.168;2022-08-23T04:38:32;17.70;;;11.82;;
19436;SDS011;9854;50.968;4.168;2022-08-23T04:40:58;22.27;;;12.00;;
19436;SDS011;9854;50.968;4.168;2022-08-23T04:43:43;25.63;;;13.43;;
19436;SDS011;9854;50.968;4.168;2022-08-23T04:46:09;24.58;;;13.48;;
19436;SDS011;9854;50.968;4.168;2022-08-23T04:48:38;26.88;;;13.80;;
19436;SDS011;9854;50.968;4.168;2022-08-23T04:51:04;33.20;;;13.48;;
19436;SDS011;9854;50.968;4.168;2022-08-23T04:53:30;30.30;;;14.38;;
19436;SDS011;9854;50.968;4.168;2022-08-23T04:55:59;29.48;;;14.20;;
19436;SDS011;9854;50.968;4.168;2022-08-23T04:58:26;30.52;;;13.13;;
19436;SDS011;9854;50.968;4.168;2022-08-23T05:00:52;26.95;;;13.63;;
19436;SDS011;9854;50.968;4.168;2022-08-23T05:03:18;34.30;;;14.40;;
19436;SDS011;9854;50.968;4.168;2022-08-23T05:05:44;61.38;;;15.65;;
19436;SDS011;9854;50.968;4.168;2022-08-23T05:08:10;59.90;;;14.15;;
19436;SDS011;9854;50.968;4.168;2022-08-23T05:10:36;65.45;;;15.35;;
19436;SDS011;9854;50.968;4.168;2022-08-23T05:13:02;49.15;;;13.75;;
19436;SDS011;9854;50.968;4.168;2022-08-23T05:15:28;55.55;;;13.85;;
19436;SDS011;9854;50.968;4.168;2022-08-23T05:17:53;60.20;;;15.60;;
19436;SDS011;9854;50.968;4.168;2022-08-23T05:20:19;75.63;;;16.27;;
19436;SDS011;9854;50.968;4.168;2022-08-23T05:22:45;50.63;;;15.98;;
19436;SDS011;9854;50.968;4.168;2022-08-23T05:25:11;39.80;;;14.95;;
19436;SDS011;9854;50.968;4.168;2022-08-23T05:27:36;51.80;;;13.43;;
19436;SDS011;9854;50.968;4.168;2022-08-23T05:30:03;56.25;;;14.13;;
19436;SDS011;9854;50.968;4.168;2022-08-23T05:32:30;50.50;;;14.07;;
19436;SDS011;9854;50.968;4.168;2022-08-23T05:34:56;36.28;;;13.25;;
19436;SDS011;9854;50.968;4.168;2022-08-23T05:37:22;47.83;;;14.77;;
19436;SDS011;9854;50.968;4.168;2022-08-23T05:39:48;32.08;;;12.80;;
19436;SDS011;9854;50.968;4.168;2022-08-23T05:42:14;26.13;;;11.82;;
19436;SDS011;9854;50.968;4.168;2022-08-23T05:44:41;26.58;;;12.27;;
19436;SDS011;9854;50.968;4.168;2022-08-23T05:47:08;28.20;;;12.38;;
19436;SDS011;9854;50.968;4.168;2022-08-23T05:49:35;28.10;;;11.93;;
19436;SDS011;9854;50.968;4.168;2022-08-23T05:52:04;26.98;;;12.60;;
19436;SDS011;9854;50.968;4.168;2022-08-23T05:54:31;24.60;;;12.45;;
19436;SDS011;9854;50.968;4.168;2022-08-23T05:56:57;31.80;;;13.13;;
19436;SDS011;9854;50.968;4.168;2022-08-23T05:59:23;32.35;;;12.82;;
19436;SDS011;9854;50.968;4.168;2022-08-23T06:01:48;27.13;;;11.52;;
19436;SDS011;9854;50.968;4.168;2022-08-23T06:04:14;24.23;;;12.80;;
19436;SDS011;9854;50.968;4.168;2022-08-23T06:06:41;31.58;;;12.52;;
19436;SDS011;9854;50.968;4.168;2022-08-23T06:09:10;33.47;;;10.55;;
19436;SDS011;9854;50.968;4.168;2022-08-23T06:11:38;25.30;;;8.45;;
19436;SDS011;9854;50.968;4.168;2022-08-23T06:14:05;25.63;;;8.20;;
19436;SDS011;9854;50.968;4.168;2022-08-23T06:16:34;23.42;;;7.18;;
19436;SDS011;9854;50.968;4.168;2022-08-23T06:19:08;24.30;;;7.10;;
19436;SDS011;9854;50.968;4.168;2022-08-23T06:21:34;23.67;;;7.35;;
19436;SDS011;9854;50.968;4.168;2022-08-23T06:24:01;18.25;;;6.90;;
19436;SDS011;9854;50.968;4.168;2022-08-23T06:26:32;21.33;;;6.47;;
19436;SDS011;9854;50.968;4.168;2022-08-23T06:29:03;20.40;;;6.65;;
19436;SDS011;9854;50.968;4.168;2022-08-23T06:31:30;17.48;;;6.90;;
19436;SDS011;9854;50.968;4.168;2022-08-23T06:36:56;19.67;;;6.72;;
19436;SDS011;9854;50.968;4.168;2022-08-23T06:39:25;18.40;;;6.15;;
19436;SDS011;9854;50.968;4.168;2022-08-23T06:41:52;16.63;;;6.25;;
19436;SDS011;9854;50.968;4.168;2022-08-23T06:44:24;12.60;;;5.93;;
19436;SDS011;9854;50.968;4.168;2022-08-23T06:46:51;15.13;;;5.65;;
19436;SDS011;9854;50.968;4.168;2022-08-23T06:49:19;19.27;;;6.70;;
19436;SDS011;9854;50.968;4.168;2022-08-23T06:51:48;16.60;;;6.50;;
19436;SDS011;9854;50.968;4.168;2022-08-23T06:54:16;15.60;;;6.80;;
19436;SDS011;9854;50.968;4.168;2022-08-23T06:56:44;15.88;;;7.00;;
19436;SDS011;9854;50.968;4.168;2022-08-23T06:59:10;13.10;;;7.57;;
19436;SDS011;9854;50.968;4.168;2022-08-23T07:01:41;14.93;;;6.32;;
19436;SDS011;9854;50.968;4.168;2022-08-23T07:04:10;16.42;;;6.43;;
19436;SDS011;9854;50.968;4.168;2022-08-23T07:06:36;15.52;;;6.50;;
19436;SDS011;9854;50.968;4.168;2022-08-23T07:09:03;15.32;;;6.13;;
19436;SDS011;9854;50.968;4.168;2022-08-23T07:11:29;13.15;;;5.38;;
19436;SDS011;9854;50.968;4.168;2022-08-23T07:13:57;8.35;;;5.68;;
19436;SDS011;9854;50.968;4.168;2022-08-23T07:16:25;13.10;;;5.43;;
19436;SDS011;9854;50.968;4.168;2022-08-23T07:18:59;12.00;;;4.45;;
19436;SDS011;9854;50.968;4.168;2022-08-23T07:21:24;12.57;;;5.25;;
19436;SDS011;9854;50.968;4.168;2022-08-23T07:23:50;17.65;;;5.88;;
19436;SDS011;9854;50.968;4.168;2022-08-23T07:26:16;10.13;;;4.90;;
19436;SDS011;9854;50.968;4.168;2022-08-23T07:28:42;14.48;;;5.10;;
19436;SDS011;9854;50.968;4.168;2022-08-23T07:31:22;10.85;;;5.00;;
19436;SDS011;9854;50.968;4.168;2022-08-23T07:33:51;19.52;;;5.30;;
19436;SDS011;9854;50.968;4.168;2022-08-23T07:36:18;15.48;;;5.20;;
19436;SDS011;9854;50.968;4.168;2022-08-23T07:38:46;9.18;;;5.25;;
19436;SDS011;9854;50.968;4.168;2022-08-23T07:41:12;15.90;;;4.78;;
19436;SDS011;9854;50.968;4.168;2022-08-23T07:43:39;10.60;;;4.43;;
19436;SDS011;9854;50.968;4.168;2022-08-23T07:46:06;10.02;;;4.00;;
19436;SDS011;9854;50.968;4.168;2022-08-23T07:48:32;10.95;;;4.30;;
19436;SDS011;9854;50.968;4.168;2022-08-23T07:50:59;16.35;;;3.95;;
19436;SDS011;9854;50.968;4.168;2022-08-23T07:53:26;13.85;;;4.03;;
19436;SDS011;9854;50.968;4.168;2022-08-23T07:55:53;9.13;;;3.65;;
19436;SDS011;9854;50.968;4.168;2022-08-23T07:58:20;9.38;;;3.38;;
19436;SDS011;9854;50.968;4.168;2022-08-23T08:00:46;16.58;;;3.80;;
19436;SDS011;9854;50.968;4.168;2022-08-23T08:03:12;8.50;;;3.70;;
19436;SDS011;9854;50.968;4.168;2022-08-23T08:05:40;5.65;;;3.80;;
19436;SDS011;9854;50.968;4.168;2022-08-23T08:08:05;6.32;;;2.90;;
19436;SDS011;9854;50.968;4.168;2022-08-23T08:10:36;5.38;;;3.35;;
19436;SDS011;9854;50.968;4.168;2022-08-23T08:13:05;8.35;;;3.20;;
19436;SDS011;9854;50.968;4.168;2022-08-23T08:15:31;9.40;;;3.03;;
19436;SDS011;9854;50.968;4.168;2022-08-23T08:17:57;11.38;;;3.70;;
19436;SDS011;9854;50.968;4.168;2022-08-23T08:20:22;9.80;;;3.38;;
19436;SDS011;9854;50.968;4.168;2022-08-23T08:22:49;12.98;;;3.83;;
19436;SDS011;9854;50.968;4.168;2022-08-23T08:25:15;8.90;;;3.78;;
19436;SDS011;9854;50.968;4.168;2022-08-23T08:27:41;11.63;;;4.30;;
19436;SDS011;9854;50.968;4.168;2022-08-23T08:30:08;11.65;;;3.30;;
19436;SDS011;9854;50.968;4.168;2022-08-23T08:32:34;9.40;;;3.67;;
19436;SDS011;9854;50.968;4.168;2022-08-23T08:35:01;11.40;;;4.00;;
19436;SDS011;9854;50.968;4.168;2022-08-23T08:37:27;13.13;;;4.55;;
19436;SDS011;9854;50.968;4.168;2022-08-23T08:39:54;12.35;;;4.70;;
19436;SDS011;9854;50.968;4.168;2022-08-23T08:45:23;7.13;;;3.90;;
19436;SDS011;9854;50.968;4.168;2022-08-23T08:48:02;9.88;;;4.57;;
19436;SDS011;9854;50.968;4.168;2022-08-23T08:50:33;12.50;;;4.57;;
19436;SDS011;9854;50.968;4.168;2022-08-23T08:55:50;16.55;;;5.32;;
19436;SDS011;9854;50.968;4.168;2022-08-23T08:58:47;11.68;;;4.80;;
19436;SDS011;9854;50.968;4.168;2022-08-23T09:01:28;12.98;;;5.38;;
19436;SDS011;9854;50.968;4.168;2022-08-23T09:03:55;12.77;;;5.18;;
19436;SDS011;9854;50.968;4.168;2022-08-23T09:06:23;9.35;;;5.00;;
19436;SDS011;9854;50.968;4.168;2022-08-23T09:17:42;10.07;;;5.07;;
19436;SDS011;9854;50.968;4.168;2022-08-23T09:20:14;16.85;;;4.53;;
19436;SDS011;9854;50.968;4.168;2022-08-23T09:22:44;6.93;;;3.67;;
19436;SDS011;9854;50.968;4.168;2022-08-23T09:25:13;9.60;;;3.05;;
19436;SDS011;9854;50.968;4.168;2022-08-23T09:27:41;6.47;;;3.10;;
19436;SDS011;9854;50.968;4.168;2022-08-23T09:30:08;5.90;;;3.22;;
19436;SDS011;9854;50.968;4.168;2022-08-23T09:32:36;11.40;;;3.30;;
19436;SDS011;9854;50.968;4.168;2022-08-23T09:40:36;10.68;;;3.05;;
19436;SDS011;9854;50.968;4.168;2022-08-23T09:53:38;5.25;;;2.60;;
19436;SDS011;9854;50.968;4.168;2022-08-23T09:56:35;5.03;;;1.92;;
19436;SDS011;9854;50.968;4.168;2022-08-23T09:58:53;9.43;;;2.20;;
19436;SDS011;9854;50.968;4.168;2022-08-23T10:01:23;9.45;;;2.40;;
19436;SDS011;9854;50.968;4.168;2022-08-23T10:06:32;8.80;;;2.20;;
19436;SDS011;9854;50.968;4.168;2022-08-23T10:08:58;5.28;;;2.08;;
19436;SDS011;9854;50.968;4.168;2022-08-23T10:11:30;6.05;;;2.42;;
19436;SDS011;9854;50.968;4.168;2022-08-23T10:14:00;9.90;;;1.63;;
19436;SDS011;9854;50.968;4.168;2022-08-23T10:16:36;2.28;;;1.35;;
19436;SDS011;9854;50.968;4.168;2022-08-23T10:22:24;5.25;;;1.50;;
19436;SDS011;9854;50.968;4.168;2022-08-23T10:25:01;4.47;;;1.10;;
19436;SDS011;9854;50.968;4.168;2022-08-23T10:27:46;4.75;;;1.15;;
19436;SDS011;9854;50.968;4.168;2022-08-23T10:33:19;4.57;;;1.00;;
19436;SDS011;9854;50.968;4.168;2022-08-23T10:43:44;3.53;;;1.30;;
19436;SDS011;9854;50.968;4.168;2022-08-23T10:46:23;1.67;;;1.20;;
19436;SDS011;9854;50.968;4.168;2022-08-23T10:48:54;3.08;;;0.90;;
19436;SDS011;9854;50.968;4.168;2022-08-23T10:51:23;2.75;;;0.98;;
19436;SDS011;9854;50.968;4.168;2022-08-23T10:54:09;5.28;;;0.80;;
19436;SDS011;9854;50.968;4.168;2022-08-23T10:56:42;5.70;;;1.20;;
19436;SDS011;9854;50.968;4.168;2022-08-23T10:59:09;2.50;;;1.10;;
19436;SDS011;9854;50.968;4.168;2022-08-23T11:04:34;2.22;;;0.70;;
19436;SDS011;9854;50.968;4.168;2022-08-23T11:07:19;5.50;;;0.88;;
19436;SDS011;9854;50.968;4.168;2022-08-23T11:09:54;1.83;;;0.80;;
19436;SDS011;9854;50.968;4.168;2022-08-23T11:12:28;3.60;;;0.65;;
19436;SDS011;9854;50.968;4.168;2022-08-23T11:25:43;7.65;;;1.23;;
19436;SDS011;9854;50.968;4.168;2022-08-23T11:30:48;1.75;;;0.80;;
19436;SDS011;9854;50.968;4.168;2022-08-23T11:33:22;2.53;;;0.80;;
19436;SDS011;9854;50.968;4.168;2022-08-23T11:39:16;2.03;;;0.90;;
19436;SDS011;9854;50.968;4.168;2022-08-23T11:41:26;6.07;;;0.77;;
19436;SDS011;9854;50.968;4.168;2022-08-23T11:49:01;3.40;;;1.00;;
19436;SDS011;9854;50.968;4.168;2022-08-23T12:02:51;1.85;;;1.42;;
19436;SDS011;9854;50.968;4.168;2022-08-23T12:05:40;1.13;;;0.90;;
19436;SDS011;9854;50.968;4.168;2022-08-23T12:08:44;1.33;;;0.95;;
19436;SDS011;9854;50.968;4.168;2022-08-23T12:11:22;2.15;;;0.95;;
19436;SDS011;9854;50.968;4.168;2022-08-23T12:14:00;1.50;;;0.77;;
19436;SDS011;9854;50.968;4.168;2022-08-23T12:19:47;1.05;;;0.60;;
19436;SDS011;9854;50.968;4.168;2022-08-23T12:22:23;2.70;;;0.82;;
19436;SDS011;9854;50.968;4.168;2022-08-23T12:24:58;0.65;;;0.57;;
19436;SDS011;9854;50.968;4.168;2022-08-23T12:28:32;1.67;;;0.70;;
19436;SDS011;9854;50.968;4.168;2022-08-23T12:38:34;0.90;;;0.52;;
19436;SDS011;9854;50.968;4.168;2022-08-23T12:41:18;1.73;;;0.70;;
19436;SDS011;9854;50.968;4.168;2022-08-23T12:44:04;0.80;;;0.30;;
19436;SDS011;9854;50.968;4.168;2022-08-23T12:46:40;7.18;;;0.63;;
19436;SDS011;9854;50.968;4.168;2022-08-23T12:49:09;0.80;;;0.55;;
19436;SDS011;9854;50.968;4.168;2022-08-23T12:51:48;1.17;;;0.50;;
19436;SDS011;9854;50.968;4.168;2022-08-23T12:54:15;3.53;;;0.60;;
19436;SDS011;9854;50.968;4.168;2022-08-23T12:56:44;0.50;;;0.50;;
19436;SDS011;9854;50.968;4.168;2022-08-23T12:59:29;1.27;;;0.60;;
19436;SDS011;9854;50.968;4.168;2022-08-23T13:02:31;3.88;;;0.60;;
19436;SDS011;9854;50.968;4.168;2022-08-23T13:05:02;0.73;;;0.73;;
19436;SDS011;9854;50.968;4.168;2022-08-23T13:07:34;1.20;;;0.68;;
19436;SDS011;9854;50.968;4.168;2022-08-23T13:10:00;0.90;;;0.60;;
19436;SDS011;9854;50.968;4.168;2022-08-23T13:12:26;5.35;;;1.15;;
19436;SDS011;9854;50.968;4.168;2022-08-23T13:14:53;0.93;;;0.70;;
19436;SDS011;9854;50.968;4.168;2022-08-23T13:20:10;1.65;;;0.70;;
19436;SDS011;9854;50.968;4.168;2022-08-23T13:25:31;1.90;;;0.90;;
19436;SDS011;9854;50.968;4.168;2022-08-23T13:28:07;0.80;;;0.80;;
19436;SDS011;9854;50.968;4.168;2022-08-23T13:31:00;3.03;;;0.70;;
19436;SDS011;9854;50.968;4.168;2022-08-23T13:33:28;1.13;;;1.02;;
19436;SDS011;9854;50.968;4.168;2022-08-23T13:36:36;1.85;;;1.05;;
19436;SDS011;9854;50.968;4.168;2022-08-23T13:38:44;2.50;;;0.80;;
19436;SDS011;9854;50.968;4.168;2022-08-23T13:44:08;2.38;;;0.90;;
19436;SDS011;9854;50.968;4.168;2022-08-23T13:46:35;1.05;;;0.50;;
19436;SDS011;9854;50.968;4.168;2022-08-23T13:49:10;3.47;;;0.70;;
19436;SDS011;9854;50.968;4.168;2022-08-23T13:51:45;0.90;;;0.80;;
19436;SDS011;9854;50.968;4.168;2022-08-23T13:54:32;2.78;;;0.70;;
19436;SDS011;9854;50.968;4.168;2022-08-23T13:57:04;4.85;;;0.93;;
19436;SDS011;9854;50.968;4.168;2022-08-23T13:59:35;1.10;;;0.70;;
19436;SDS011;9854;50.968;4.168;2022-08-23T14:02:07;1.65;;;0.80;;
19436;SDS011;9854;50.968;4.168;2022-08-23T14:04:36;5.20;;;0.90;;
19436;SDS011;9854;50.968;4.168;2022-08-23T14:07:03;4.15;;;0.70;;
19436;SDS011;9854;50.968;4.168;2022-08-23T14:09:29;1.10;;;0.77;;
19436;SDS011;9854;50.968;4.168;2022-08-23T14:11:56;0.82;;;0.52;;
19436;SDS011;9854;50.968;4.168;2022-08-23T14:14:23;0.50;;;0.50;;
19436;SDS011;9854;50.968;4.168;2022-08-23T14:16:49;0.65;;;0.65;;
19436;SDS011;9854;50.968;4.168;2022-08-23T14:19:17;1.08;;;0.60;;
19436;SDS011;9854;50.968;4.168;2022-08-23T14:21:42;2.95;;;0.80;;
19436;SDS011;9854;50.968;4.168;2022-08-23T14:24:09;0.60;;;0.60;;
19436;SDS011;9854;50.968;4.168;2022-08-23T14:26:34;0.85;;;0.60;;
19436;SDS011;9854;50.968;4.168;2022-08-23T14:29:00;0.93;;;0.40;;
19436;SDS011;9854;50.968;4.168;2022-08-23T14:31:26;0.55;;;0.55;;
19436;SDS011;9854;50.968;4.168;2022-08-23T14:33:51;3.95;;;0.90;;
19436;SDS011;9854;50.968;4.168;2022-08-23T14:36:17;7.75;;;0.70;;
19436;SDS011;9854;50.968;4.168;2022-08-23T14:38:43;2.47;;;0.73;;
19436;SDS011;9854;50.968;4.168;2022-08-23T14:41:16;2.55;;;0.50;;
19436;SDS011;9854;50.968;4.168;2022-08-23T14:43:45;0.77;;;0.77;;
19436;SDS011;9854;50.968;4.168;2022-08-23T14:46:10;0.68;;;0.60;;
19436;SDS011;9854;50.968;4.168;2022-08-23T14:48:36;0.73;;;0.70;;
19436;SDS011;9854;50.968;4.168;2022-08-23T14:51:02;2.83;;;0.73;;
19436;SDS011;9854;50.968;4.168;2022-08-23T14:53:29;3.15;;;0.90;;
19436;SDS011;9854;50.968;4.168;2022-08-23T14:55:57;1.00;;;0.80;;
19436;SDS011;9854;50.968;4.168;2022-08-23T14:58:23;0.80;;;0.70;;
19436;SDS011;9854;50.968;4.168;2022-08-23T15:00:50;2.33;;;0.80;;
19436;SDS011;9854;50.968;4.168;2022-08-23T15:03:21;1.75;;;0.85;;
19436;SDS011;9854;50.968;4.168;2022-08-23T15:05:49;3.03;;;0.68;;
19436;SDS011;9854;50.968;4.168;2022-08-23T15:08:16;1.42;;;0.80;;
19436;SDS011;9854;50.968;4.168;2022-08-23T15:10:42;4.00;;;1.10;;
19436;SDS011;9854;50.968;4.168;2022-08-23T15:13:08;1.52;;;1.10;;
19436;SDS011;9854;50.968;4.168;2022-08-23T15:15:33;3.72;;;0.75;;
19436;SDS011;9854;50.968;4.168;2022-08-23T15:18:00;3.70;;;0.90;;
19436;SDS011;9854;50.968;4.168;2022-08-23T15:20:28;1.77;;;0.70;;
19436;SDS011;9854;50.968;4.168;2022-08-23T15:22:56;1.20;;;0.90;;
19436;SDS011;9854;50.968;4.168;2022-08-23T15:25:23;2.45;;;0.85;;
19436;SDS011;9854;50.968;4.168;2022-08-23T15:27:52;2.88;;;0.80;;
19436;SDS011;9854;50.968;4.168;2022-08-23T15:30:19;0.80;;;0.80;;
19436;SDS011;9854;50.968;4.168;2022-08-23T15:32:45;0.77;;;0.70;;
19436;SDS011;9854;50.968;4.168;2022-08-23T15:35:11;1.17;;;1.13;;
19436;SDS011;9854;50.968;4.168;2022-08-23T15:37:37;1.05;;;0.85;;
19436;SDS011;9854;50.968;4.168;2022-08-23T15:40:04;1.35;;;0.90;;
19436;SDS011;9854;50.968;4.168;2022-08-23T15:42:32;1.05;;;0.95;;
19436;SDS011;9854;50.968;4.168;2022-08-23T15:44:58;1.80;;;0.88;;
19436;SDS011;9854;50.968;4.168;2022-08-23T15:47:27;6.15;;;0.90;;
19436;SDS011;9854;50.968;4.168;2022-08-23T15:49:55;0.90;;;0.80;;
19436;SDS011;9854;50.968;4.168;2022-08-23T15:52:23;3.63;;;0.90;;
19436;SDS011;9854;50.968;4.168;2022-08-23T15:54:48;2.70;;;1.20;;
19436;SDS011;9854;50.968;4.168;2022-08-23T15:57:15;1.00;;;0.88;;
19436;SDS011;9854;50.968;4.168;2022-08-23T15:59:44;1.70;;;0.82;;
19436;SDS011;9854;50.968;4.168;2022-08-23T16:02:10;2.25;;;1.08;;
19436;SDS011;9854;50.968;4.168;2022-08-23T16:04:35;3.60;;;0.90;;
19436;SDS011;9854;50.968;4.168;2022-08-23T16:07:05;2.08;;;1.13;;
19436;SDS011;9854;50.968;4.168;2022-08-23T16:09:33;1.67;;;0.68;;
19436;SDS011;9854;50.968;4.168;2022-08-23T16:11:59;1.15;;;0.90;;
19436;SDS011;9854;50.968;4.168;2022-08-23T16:14:26;1.10;;;1.00;;
19436;SDS011;9854;50.968;4.168;2022-08-23T16:16:52;0.85;;;0.75;;
19436;SDS011;9854;50.968;4.168;2022-08-23T16:19:18;5.45;;;1.25;;
19436;SDS011;9854;50.968;4.168;2022-08-23T16:21:43;2.03;;;1.00;;
19436;SDS011;9854;50.968;4.168;2022-08-23T16:24:09;1.60;;;0.80;;
19436;SDS011;9854;50.968;4.168;2022-08-23T16:26:36;6.97;;;1.17;;
19436;SDS011;9854;50.968;4.168;2022-08-23T16:29:05;3.55;;;1.23;;
19436;SDS011;9854;50.968;4.168;2022-08-23T16:31:33;11.80;;;1.10;;
19436;SDS011;9854;50.968;4.168;2022-08-23T16:33:59;8.40;;;1.23;;
19436;SDS011;9854;50.968;4.168;2022-08-23T16:36:26;1.17;;;0.73;;
19436;SDS011;9854;50.968;4.168;2022-08-23T16:38:52;2.15;;;0.90;;
19436;SDS011;9854;50.968;4.168;2022-08-23T16:41:19;2.90;;;0.90;;
19436;SDS011;9854;50.968;4.168;2022-08-23T16:43:46;1.70;;;0.80;;
19436;SDS011;9854;50.968;4.168;2022-08-23T16:46:12;1.13;;;0.90;;
19436;SDS011;9854;50.968;4.168;2022-08-23T16:48:40;1.17;;;0.90;;
19436;SDS011;9854;50.968;4.168;2022-08-23T16:51:08;2.17;;;0.80;;